sensor_id;sensor_type;location;lat;lon;timestamp;pressure;altitude;pressure_sealevel;temperature;humidity
61898;BME280;47850;50.274;18.908;2022-11-20T00:01:37;97790.84;;;-6.68;92.87
61898;BME280;47850;50.274;18.908;2022-11-20T00:04:03;97785.92;;;-6.67;93.04
61898;BME280;47850;50.274;18.908;2022-11-20T00:06:28;97787.15;;;-6.67;93.17
61898;BME280;47850;50.274;18.908;2022-11-20T00:08:55;97786.73;;;-6.67;93.28
61898;BME280;47850;50.274;18.908;2022-11-20T00:11:22;97781.52;;;-6.67;93.32
61898;BME280;47850;50.274;18.908;2022-11-20T00:13:49;97780.77;;;-6.68;93.44
61898;BME280;47850;50.274;18.908;2022-11-20T00:16:16;97782.60;;;-6.69;93.41
61898;BME280;47850;50.274;18.908;2022-11-20T00:18:42;97779.27;;;-6.69;93.70
61898;BME280;47850;50.274;18.908;2022-11-20T00:21:10;97779.46;;;-6.69;94.10
61898;BME280;47850;50.274;18.908;2022-11-20T00:23:35;97776.73;;;-6.68;94.08
61898;BME280;47850;50.274;18.908;2022-11-20T00:26:05;97777.73;;;-6.68;94.01
61898;BME280;47850;50.274;18.908;2022-11-20T00:28:30;97782.58;;;-6.67;94.06
61898;BME280;47850;50.274;18.908;2022-11-20T00:31:02;97786.14;;;-6.67;94.14
61898;BME280;47850;50.274;18.908;2022-11-20T00:33:28;97787.27;;;-6.67;94.47
61898;BME280;47850;50.274;18.908;2022-11-20T00:35:53;97786.42;;;-6.67;94.22
61898;BME280;47850;50.274;18.908;2022-11-20T00:38:19;97783.53;;;-6.69;94.07
61898;BME280;47850;50.274;18.908;2022-11-20T00:40:44;97781.14;;;-6.71;94.02
61898;BME280;47850;50.274;18.908;2022-11-20T00:43:09;97779.77;;;-6.71;94.08
61898;BME280;47850;50.274;18.908;2022-11-20T00:45:35;97782.33;;;-6.70;94.33
61898;BME280;47850;50.274;18.908;2022-11-20T00:48:00;97781.77;;;-6.71;94.28
61898;BME280;47850;50.274;18.908;2022-11-20T00:50:25;97777.29;;;-6.72;94.33
61898;BME280;47850;50.274;18.908;2022-11-20T00:52:50;97773.05;;;-6.74;94.44
61898;BME280;47850;50.274;18.908;2022-11-20T00:55:16;97773.81;;;-6.74;94.50
61898;BME280;47850;50.274;18.908;2022-11-20T00:57:41;97769.41;;;-6.74;94.68
61898;BME280;47850;50.274;18.908;2022-11-20T01:00:06;97772.01;;;-6.75;94.64
61898;BME280;47850;50.274;18.908;2022-11-20T01:02:32;97771.20;;;-6.77;94.70
61898;BME280;47850;50.274;18.908;2022-11-20T01:04:57;97766.55;;;-6.78;94.62
61898;BME280;47850;50.274;18.908;2022-11-20T01:07:22;97762.81;;;-6.80;94.67
61898;BME280;47850;50.274;18.908;2022-11-20T01:09:48;97764.04;;;-6.84;94.47
61898;BME280;47850;50.274;18.908;2022-11-20T01:12:13;97759.30;;;-6.88;94.01
61898;BME280;47850;50.274;18.908;2022-11-20T01:14:38;97760.17;;;-6.94;93.59
61898;BME280;47850;50.274;18.908;2022-11-20T01:17:03;97761.60;;;-7.02;93.19
61898;BME280;47850;50.274;18.908;2022-11-20T01:19:29;97759.44;;;-7.10;92.85
61898;BME280;47850;50.274;18.908;2022-11-20T01:21:55;97759.48;;;-7.15;92.99
61898;BME280;47850;50.274;18.908;2022-11-20T01:24:20;97763.58;;;-7.20;93.11
61898;BME280;47850;50.274;18.908;2022-11-20T01:26:47;97763.08;;;-7.24;93.08
61898;BME280;47850;50.274;18.908;2022-11-20T01:29:14;97758.78;;;-7.27;92.98
61898;BME280;47850;50.274;18.908;2022-11-20T01:31:39;97752.16;;;-7.30;92.92
61898;BME280;47850;50.274;18.908;2022-11-20T01:34:06;97746.44;;;-7.35;92.79
61898;BME280;47850;50.274;18.908;2022-11-20T01:36:32;97743.25;;;-7.39;92.60
61898;BME280;47850;50.274;18.908;2022-11-20T01:38:59;97742.25;;;-7.42;92.48
61898;BME280;47850;50.274;18.908;2022-11-20T01:41:25;97738.58;;;-7.43;92.96
61898;BME280;47850;50.274;18.908;2022-11-20T01:44:10;97730.98;;;-7.44;93.06
61898;BME280;47850;50.274;18.908;2022-11-20T01:46:36;97728.11;;;-7.43;93.22
61898;BME280;47850;50.274;18.908;2022-11-20T01:53:57;97718.34;;;-7.43;93.40
61898;BME280;47850;50.274;18.908;2022-11-20T01:56:24;97718.83;;;-7.44;92.94
61898;BME280;47850;50.274;18.908;2022-11-20T01:58:51;97721.77;;;-7.44;93.19
61898;BME280;47850;50.274;18.908;2022-11-20T02:01:18;97725.98;;;-7.43;93.47
61898;BME280;47850;50.274;18.908;2022-11-20T02:03:43;97726.49;;;-7.44;93.67
61898;BME280;47850;50.274;18.908;2022-11-20T02:06:11;97730.98;;;-7.46;93.48
61898;BME280;47850;50.274;18.908;2022-11-20T02:08:37;97730.02;;;-7.49;93.42
61898;BME280;47850;50.274;18.908;2022-11-20T02:11:03;97731.73;;;-7.54;93.08
61898;BME280;47850;50.274;18.908;2022-11-20T02:13:28;97728.98;;;-7.58;93.00
61898;BME280;47850;50.274;18.908;2022-11-20T02:19:33;97742.46;;;-7.65;93.32
61898;BME280;47850;50.274;18.908;2022-11-20T02:24:42;97745.19;;;-7.65;93.88
61898;BME280;47850;50.274;18.908;2022-11-20T02:27:09;97748.34;;;-7.61;93.99
61898;BME280;47850;50.274;18.908;2022-11-20T02:29:40;97752.50;;;-7.55;94.67
61898;BME280;47850;50.274;18.908;2022-11-20T02:32:16;97756.84;;;-7.50;94.58
61898;BME280;47850;50.274;18.908;2022-11-20T02:34:42;97759.75;;;-7.46;94.78
61898;BME280;47850;50.274;18.908;2022-11-20T02:37:07;97756.50;;;-7.42;95.24
61898;BME280;47850;50.274;18.908;2022-11-20T02:39:32;97755.94;;;-7.38;95.45
61898;BME280;47850;50.274;18.908;2022-11-20T02:42:00;97757.27;;;-7.36;95.27
61898;BME280;47850;50.274;18.908;2022-11-20T02:44:26;97760.91;;;-7.35;94.91
61898;BME280;47850;50.274;18.908;2022-11-20T02:46:51;97760.88;;;-7.36;94.91
61898;BME280;47850;50.274;18.908;2022-11-20T02:49:16;97761.56;;;-7.36;94.93
61898;BME280;47850;50.274;18.908;2022-11-20T02:51:42;97760.33;;;-7.35;95.06
61898;BME280;47850;50.274;18.908;2022-11-20T02:54:07;97758.08;;;-7.34;95.32
61898;BME280;47850;50.274;18.908;2022-11-20T02:56:32;97757.48;;;-7.32;95.50
61898;BME280;47850;50.274;18.908;2022-11-20T02:58:58;97753.98;;;-7.29;95.46
61898;BME280;47850;50.274;18.908;2022-11-20T03:01:23;97755.36;;;-7.28;95.72
61898;BME280;47850;50.274;18.908;2022-11-20T03:03:48;97752.23;;;-7.28;95.64
61898;BME280;47850;50.274;18.908;2022-11-20T03:06:15;97753.64;;;-7.27;95.56
61898;BME280;47850;50.274;18.908;2022-11-20T03:08:41;97752.83;;;-7.27;95.64
61898;BME280;47850;50.274;18.908;2022-11-20T03:11:06;97755.63;;;-7.26;95.58
61898;BME280;47850;50.274;18.908;2022-11-20T03:13:32;97757.79;;;-7.25;95.77
61898;BME280;47850;50.274;18.908;2022-11-20T03:15:58;97754.40;;;-7.25;95.87
61898;BME280;47850;50.274;18.908;2022-11-20T03:18:23;97752.05;;;-7.26;95.86
61898;BME280;47850;50.274;18.908;2022-11-20T03:20:48;97751.23;;;-7.27;95.80
61898;BME280;47850;50.274;18.908;2022-11-20T03:23:14;97754.25;;;-7.26;95.82
61898;BME280;47850;50.274;18.908;2022-11-20T03:25:39;97754.34;;;-7.27;95.70
61898;BME280;47850;50.274;18.908;2022-11-20T03:28:04;97756.21;;;-7.28;95.77
61898;BME280;47850;50.274;18.908;2022-11-20T03:30:30;97758.62;;;-7.30;95.64
61898;BME280;47850;50.274;18.908;2022-11-20T03:32:55;97761.74;;;-7.32;95.30
61898;BME280;47850;50.274;18.908;2022-11-20T03:35:20;97761.70;;;-7.33;95.61
61898;BME280;47850;50.274;18.908;2022-11-20T03:37:46;97761.64;;;-7.35;95.60
61898;BME280;47850;50.274;18.908;2022-11-20T03:40:11;97762.30;;;-7.38;95.35
61898;BME280;47850;50.274;18.908;2022-11-20T03:42:37;97760.58;;;-7.40;95.18
61898;BME280;47850;50.274;18.908;2022-11-20T03:45:12;97755.52;;;-7.47;94.63
61898;BME280;47850;50.274;18.908;2022-11-20T03:47:38;97754.30;;;-7.52;94.51
61898;BME280;47850;50.274;18.908;2022-11-20T03:50:03;97755.73;;;-7.57;94.40
61898;BME280;47850;50.274;18.908;2022-11-20T03:52:29;97753.77;;;-7.60;94.42
61898;BME280;47850;50.274;18.908;2022-11-20T03:54:54;97752.35;;;-7.63;94.43
61898;BME280;47850;50.274;18.908;2022-11-20T03:57:19;97751.09;;;-7.64;94.53
61898;BME280;47850;50.274;18.908;2022-11-20T03:59:45;97753.66;;;-7.63;94.88
61898;BME280;47850;50.274;18.908;2022-11-20T04:02:10;97755.80;;;-7.61;95.28
61898;BME280;47850;50.274;18.908;2022-11-20T04:04:35;97755.79;;;-7.58;95.58
61898;BME280;47850;50.274;18.908;2022-11-20T04:07:01;97757.48;;;-7.55;95.80
61898;BME280;47850;50.274;18.908;2022-11-20T04:09:26;97757.11;;;-7.54;96.03
61898;BME280;47850;50.274;18.908;2022-11-20T04:11:52;97753.40;;;-7.52;96.04
61898;BME280;47850;50.274;18.908;2022-11-20T04:14:17;97756.35;;;-7.50;96.03
61898;BME280;47850;50.274;18.908;2022-11-20T04:16:43;97758.06;;;-7.50;96.16
61898;BME280;47850;50.274;18.908;2022-11-20T04:19:12;97757.65;;;-7.50;96.06
61898;BME280;47850;50.274;18.908;2022-11-20T04:21:38;97753.21;;;-7.49;95.91
61898;BME280;47850;50.274;18.908;2022-11-20T04:24:03;97749.30;;;-7.50;96.03
61898;BME280;47850;50.274;18.908;2022-11-20T04:26:29;97743.92;;;-7.51;95.92
61898;BME280;47850;50.274;18.908;2022-11-20T04:28:55;97743.13;;;-7.52;95.98
61898;BME280;47850;50.274;18.908;2022-11-20T04:31:22;97737.79;;;-7.53;95.84
61898;BME280;47850;50.274;18.908;2022-11-20T04:33:48;97733.52;;;-7.54;95.70
61898;BME280;47850;50.274;18.908;2022-11-20T04:36:15;97732.96;;;-7.56;95.47
61898;BME280;47850;50.274;18.908;2022-11-20T04:38:40;97725.29;;;-7.60;95.25
61898;BME280;47850;50.274;18.908;2022-11-20T04:41:07;97725.09;;;-7.63;94.96
61898;BME280;47850;50.274;18.908;2022-11-20T04:43:32;97723.82;;;-7.68;94.82
61898;BME280;47850;50.274;18.908;2022-11-20T04:45:58;97720.25;;;-7.70;95.08
61898;BME280;47850;50.274;18.908;2022-11-20T04:48:24;97716.20;;;-7.67;95.52
61898;BME280;47850;50.274;18.908;2022-11-20T04:50:50;97712.70;;;-7.62;95.97
61898;BME280;47850;50.274;18.908;2022-11-20T04:53:16;97708.27;;;-7.57;96.25
61898;BME280;47850;50.274;18.908;2022-11-20T04:55:41;97708.00;;;-7.52;96.54
61898;BME280;47850;50.274;18.908;2022-11-20T04:58:06;97706.22;;;-7.48;96.54
61898;BME280;47850;50.274;18.908;2022-11-20T05:00:32;97701.19;;;-7.45;96.64
61898;BME280;47850;50.274;18.908;2022-11-20T05:02:57;97701.95;;;-7.43;96.73
61898;BME280;47850;50.274;18.908;2022-11-20T05:05:22;97701.61;;;-7.40;96.77
61898;BME280;47850;50.274;18.908;2022-11-20T05:07:48;97696.41;;;-7.39;96.84
61898;BME280;47850;50.274;18.908;2022-11-20T05:10:13;97693.55;;;-7.36;96.87
61898;BME280;47850;50.274;18.908;2022-11-20T05:12:38;97687.16;;;-7.33;96.88
61898;BME280;47850;50.274;18.908;2022-11-20T05:15:04;97682.35;;;-7.31;96.92
61898;BME280;47850;50.274;18.908;2022-11-20T05:17:29;97681.20;;;-7.31;96.86
61898;BME280;47850;50.274;18.908;2022-11-20T05:19:55;97682.33;;;-7.30;96.88
61898;BME280;47850;50.274;18.908;2022-11-20T05:22:20;97680.89;;;-7.30;96.79
61898;BME280;47850;50.274;18.908;2022-11-20T05:24:45;97681.21;;;-7.30;96.71
61898;BME280;47850;50.274;18.908;2022-11-20T05:27:11;97682.61;;;-7.30;96.88
61898;BME280;47850;50.274;18.908;2022-11-20T05:29:36;97678.48;;;-7.29;96.65
61898;BME280;47850;50.274;18.908;2022-11-20T05:32:01;97681.90;;;-7.30;96.62
61898;BME280;47850;50.274;18.908;2022-11-20T05:34:26;97685.95;;;-7.29;96.65
61898;BME280;47850;50.274;18.908;2022-11-20T05:36:52;97683.96;;;-7.35;96.14
61898;BME280;47850;50.274;18.908;2022-11-20T05:39:17;97682.89;;;-7.44;95.50
61898;BME280;47850;50.274;18.908;2022-11-20T05:41:42;97682.05;;;-7.52;95.18
61898;BME280;47850;50.274;18.908;2022-11-20T05:44:10;97678.55;;;-7.59;94.86
61898;BME280;47850;50.274;18.908;2022-11-20T05:46:36;97677.36;;;-7.66;94.74
61898;BME280;47850;50.274;18.908;2022-11-20T05:49:01;97678.14;;;-7.72;94.43
61898;BME280;47850;50.274;18.908;2022-11-20T05:51:26;97677.33;;;-7.79;94.27
61898;BME280;47850;50.274;18.908;2022-11-20T05:53:51;97676.30;;;-7.83;94.17
61898;BME280;47850;50.274;18.908;2022-11-20T05:56:17;97676.59;;;-7.84;94.54
61898;BME280;47850;50.274;18.908;2022-11-20T05:58:43;97678.85;;;-7.82;94.88
61898;BME280;47850;50.274;18.908;2022-11-20T06:01:13;97674.87;;;-7.82;94.93
61898;BME280;47850;50.274;18.908;2022-11-20T06:03:39;97677.79;;;-7.80;95.05
61898;BME280;47850;50.274;18.908;2022-11-20T06:06:05;97675.52;;;-7.76;95.35
61898;BME280;47850;50.274;18.908;2022-11-20T06:08:31;97677.35;;;-7.69;95.85
61898;BME280;47850;50.274;18.908;2022-11-20T06:10:57;97680.40;;;-7.62;96.22
61898;BME280;47850;50.274;18.908;2022-11-20T06:13:22;97680.41;;;-7.57;96.38
61898;BME280;47850;50.274;18.908;2022-11-20T06:15:49;97681.42;;;-7.51;96.43
61898;BME280;47850;50.274;18.908;2022-11-20T06:18:14;97681.80;;;-7.46;96.55
61898;BME280;47850;50.274;18.908;2022-11-20T06:20:40;97683.61;;;-7.43;96.53
61898;BME280;47850;50.274;18.908;2022-11-20T06:23:05;97682.70;;;-7.42;96.41
61898;BME280;47850;50.274;18.908;2022-11-20T06:25:30;97684.11;;;-7.39;96.50
61898;BME280;47850;50.274;18.908;2022-11-20T06:27:56;97690.04;;;-7.36;96.63
61898;BME280;47850;50.274;18.908;2022-11-20T06:30:21;97685.02;;;-7.32;96.76
61898;BME280;47850;50.274;18.908;2022-11-20T06:32:46;97680.39;;;-7.28;96.93
61898;BME280;47850;50.274;18.908;2022-11-20T06:35:11;97685.66;;;-7.24;96.87
61898;BME280;47850;50.274;18.908;2022-11-20T06:37:37;97681.56;;;-7.21;96.82
61898;BME280;47850;50.274;18.908;2022-11-20T06:40:02;97682.84;;;-7.18;96.92
61898;BME280;47850;50.274;18.908;2022-11-20T06:42:28;97683.13;;;-7.16;96.82
61898;BME280;47850;50.274;18.908;2022-11-20T06:44:53;97681.91;;;-7.14;96.77
61898;BME280;47850;50.274;18.908;2022-11-20T06:47:18;97680.05;;;-7.11;96.76
61898;BME280;47850;50.274;18.908;2022-11-20T06:49:43;97674.16;;;-7.08;96.82
61898;BME280;47850;50.274;18.908;2022-11-20T06:52:09;97670.50;;;-7.05;96.88
61898;BME280;47850;50.274;18.908;2022-11-20T06:54:34;97664.94;;;-7.03;96.56
61898;BME280;47850;50.274;18.908;2022-11-20T06:56:59;97664.46;;;-6.99;96.46
61898;BME280;47850;50.274;18.908;2022-11-20T06:59:25;97663.13;;;-6.97;96.51
61898;BME280;47850;50.274;18.908;2022-11-20T07:01:50;97658.96;;;-6.94;96.36
61898;BME280;47850;50.274;18.908;2022-11-20T07:04:15;97656.66;;;-6.91;96.13
61898;BME280;47850;50.274;18.908;2022-11-20T07:06:40;97654.80;;;-6.87;96.05
61898;BME280;47850;50.274;18.908;2022-11-20T07:09:06;97651.70;;;-6.83;96.04
61898;BME280;47850;50.274;18.908;2022-11-20T07:11:31;97655.77;;;-6.78;96.14
61898;BME280;47850;50.274;18.908;2022-11-20T07:13:57;97655.63;;;-6.73;96.03
61898;BME280;47850;50.274;18.908;2022-11-20T07:16:22;97650.98;;;-6.69;96.02
61898;BME280;47850;50.274;18.908;2022-11-20T07:18:47;97649.17;;;-6.64;96.09
61898;BME280;47850;50.274;18.908;2022-11-20T07:21:13;97647.89;;;-6.59;95.98
61898;BME280;47850;50.274;18.908;2022-11-20T07:23:38;97647.52;;;-6.55;95.73
61898;BME280;47850;50.274;18.908;2022-11-20T07:26:07;97646.20;;;-6.50;95.67
61898;BME280;47850;50.274;18.908;2022-11-20T07:28:33;97652.84;;;-6.45;95.66
61898;BME280;47850;50.274;18.908;2022-11-20T07:30:58;97655.31;;;-6.40;95.64
61898;BME280;47850;50.274;18.908;2022-11-20T07:33:24;97661.04;;;-6.35;95.57
61898;BME280;47850;50.274;18.908;2022-11-20T07:35:49;97657.90;;;-6.29;95.57
61898;BME280;47850;50.274;18.908;2022-11-20T07:38:14;97653.02;;;-6.23;95.58
61898;BME280;47850;50.274;18.908;2022-11-20T07:40:39;97652.33;;;-6.17;95.39
61898;BME280;47850;50.274;18.908;2022-11-20T07:43:05;97648.33;;;-6.10;95.54
61898;BME280;47850;50.274;18.908;2022-11-20T07:45:30;97646.61;;;-6.02;95.68
61898;BME280;47850;50.274;18.908;2022-11-20T07:47:55;97643.86;;;-5.93;95.75
61898;BME280;47850;50.274;18.908;2022-11-20T07:50:21;97639.66;;;-5.85;95.72
61898;BME280;47850;50.274;18.908;2022-11-20T07:52:46;97635.13;;;-5.77;95.90
61898;BME280;47850;50.274;18.908;2022-11-20T07:55:11;97637.51;;;-5.69;95.93
61898;BME280;47850;50.274;18.908;2022-11-20T07:57:37;97646.21;;;-5.61;96.00
61898;BME280;47850;50.274;18.908;2022-11-20T08:00:06;97649.19;;;-5.54;95.85
61898;BME280;47850;50.274;18.908;2022-11-20T08:02:36;97651.64;;;-5.47;96.01
61898;BME280;47850;50.274;18.908;2022-11-20T08:05:01;97652.67;;;-5.42;95.70
61898;BME280;47850;50.274;18.908;2022-11-20T08:07:27;97655.11;;;-5.38;95.71
61898;BME280;47850;50.274;18.908;2022-11-20T08:09:52;97657.00;;;-5.33;95.68
61898;BME280;47850;50.274;18.908;2022-11-20T08:12:18;97658.52;;;-5.26;95.44
61898;BME280;47850;50.274;18.908;2022-11-20T08:15:03;97661.35;;;-5.19;95.42
61898;BME280;47850;50.274;18.908;2022-11-20T08:17:29;97665.01;;;-5.13;95.46
61898;BME280;47850;50.274;18.908;2022-11-20T08:19:54;97669.45;;;-5.07;95.29
61898;BME280;47850;50.274;18.908;2022-11-20T08:22:19;97667.09;;;-5.01;95.13
61898;BME280;47850;50.274;18.908;2022-11-20T08:24:45;97673.80;;;-4.93;94.94
61898;BME280;47850;50.274;18.908;2022-11-20T08:27:11;97676.97;;;-4.87;94.82
61898;BME280;47850;50.274;18.908;2022-11-20T08:29:37;97677.41;;;-4.79;94.74
61898;BME280;47850;50.274;18.908;2022-11-20T08:32:02;97680.91;;;-4.72;94.68
61898;BME280;47850;50.274;18.908;2022-11-20T08:34:27;97674.91;;;-4.65;94.32
61898;BME280;47850;50.274;18.908;2022-11-20T08:36:53;97675.96;;;-4.58;94.14
61898;BME280;47850;50.274;18.908;2022-11-20T08:39:18;97674.73;;;-4.51;93.63
61898;BME280;47850;50.274;18.908;2022-11-20T08:41:43;97676.22;;;-4.43;93.70
61898;BME280;47850;50.274;18.908;2022-11-20T08:44:09;97681.52;;;-4.36;93.23
61898;BME280;47850;50.274;18.908;2022-11-20T08:46:38;97681.92;;;-4.27;93.07
61898;BME280;47850;50.274;18.908;2022-11-20T08:49:06;97685.23;;;-4.18;92.33
61898;BME280;47850;50.274;18.908;2022-11-20T08:51:32;97686.85;;;-4.07;91.87
61898;BME280;47850;50.274;18.908;2022-11-20T08:53:58;97685.73;;;-3.96;91.31
61898;BME280;47850;50.274;18.908;2022-11-20T08:56:23;97678.82;;;-3.86;90.77
61898;BME280;47850;50.274;18.908;2022-11-20T08:58:49;97676.30;;;-3.75;90.58
61898;BME280;47850;50.274;18.908;2022-11-20T09:01:15;97673.36;;;-3.64;90.25
61898;BME280;47850;50.274;18.908;2022-11-20T09:03:40;97671.77;;;-3.55;89.76
61898;BME280;47850;50.274;18.908;2022-11-20T09:06:07;97670.50;;;-3.48;89.07
61898;BME280;47850;50.274;18.908;2022-11-20T09:08:32;97677.77;;;-3.40;88.62
61898;BME280;47850;50.274;18.908;2022-11-20T09:10:58;97674.91;;;-3.29;88.69
61898;BME280;47850;50.274;18.908;2022-11-20T09:13:25;97677.50;;;-3.18;88.45
61898;BME280;47850;50.274;18.908;2022-11-20T09:15:57;97671.02;;;-3.09;87.68
61898;BME280;47850;50.274;18.908;2022-11-20T09:18:23;97676.74;;;-3.01;87.39
61898;BME280;47850;50.274;18.908;2022-11-20T09:20:49;97675.33;;;-2.92;87.25
61898;BME280;47850;50.274;18.908;2022-11-20T09:23:15;97673.33;;;-2.83;87.04
61898;BME280;47850;50.274;18.908;2022-11-20T09:25:40;97671.90;;;-2.75;86.63
61898;BME280;47850;50.274;18.908;2022-11-20T09:28:05;97664.46;;;-2.65;86.73
61898;BME280;47850;50.274;18.908;2022-11-20T09:30:31;97665.16;;;-2.56;86.59
61898;BME280;47850;50.274;18.908;2022-11-20T09:32:56;97666.59;;;-2.49;85.98
61898;BME280;47850;50.274;18.908;2022-11-20T09:35:22;97662.45;;;-2.44;85.61
61898;BME280;47850;50.274;18.908;2022-11-20T09:37:47;97656.17;;;-2.38;85.44
61898;BME280;47850;50.274;18.908;2022-11-20T09:40:18;97654.58;;;-2.29;85.61
61898;BME280;47850;50.274;18.908;2022-11-20T09:42:45;97654.47;;;-2.19;85.44
61898;BME280;47850;50.274;18.908;2022-11-20T09:45:21;97654.79;;;-2.06;85.18
61898;BME280;47850;50.274;18.908;2022-11-20T09:55:24;97641.61;;;-1.61;83.51
61898;BME280;47850;50.274;18.908;2022-11-20T09:57:50;97635.67;;;-1.43;82.77
61898;BME280;47850;50.274;18.908;2022-11-20T10:00:16;97634.09;;;-1.28;81.90
61898;BME280;47850;50.274;18.908;2022-11-20T10:02:47;97631.94;;;-1.16;82.39
61898;BME280;47850;50.274;18.908;2022-11-20T10:05:18;97624.25;;;-1.07;81.95
61898;BME280;47850;50.274;18.908;2022-11-20T10:10:21;97625.48;;;-0.97;81.77
61898;BME280;47850;50.274;18.908;2022-11-20T10:13:12;97619.94;;;-0.94;81.73
61898;BME280;47850;50.274;18.908;2022-11-20T10:16:01;97623.25;;;-1.02;81.17
61898;BME280;47850;50.274;18.908;2022-11-20T10:29:15;97612.36;;;-1.14;81.43
61898;BME280;47850;50.274;18.908;2022-11-20T10:32:00;97611.19;;;-1.05;81.17
61898;BME280;47850;50.274;18.908;2022-11-20T10:34:28;97611.40;;;-0.91;80.51
61898;BME280;47850;50.274;18.908;2022-11-20T10:39:30;97609.94;;;-0.54;79.86
61898;BME280;47850;50.274;18.908;2022-11-20T10:41:57;97602.52;;;-0.33;78.94
61898;BME280;47850;50.274;18.908;2022-11-20T10:44:27;97593.23;;;-0.23;78.80
61898;BME280;47850;50.274;18.908;2022-11-20T10:47:13;97583.80;;;-0.02;78.34
61898;BME280;47850;50.274;18.908;2022-11-20T10:49:39;97578.61;;;0.04;77.15
61898;BME280;47850;50.274;18.908;2022-11-20T11:02:14;97568.39;;;0.12;77.20
61898;BME280;47850;50.274;18.908;2022-11-20T11:04:42;97565.78;;;0.32;77.34
61898;BME280;47850;50.274;18.908;2022-11-20T11:07:10;97563.27;;;0.57;76.24
61898;BME280;47850;50.274;18.908;2022-11-20T11:09:44;97561.73;;;0.86;75.84
61898;BME280;47850;50.274;18.908;2022-11-20T11:12:11;97560.27;;;1.20;75.94
61898;BME280;47850;50.274;18.908;2022-11-20T11:14:46;97559.84;;;1.60;75.04
61898;BME280;47850;50.274;18.908;2022-11-20T11:17:31;97565.80;;;1.90;73.16
61898;BME280;47850;50.274;18.908;2022-11-20T11:20:04;97571.17;;;2.15;72.14
61898;BME280;47850;50.274;18.908;2022-11-20T11:22:32;97568.73;;;2.37;71.56
61898;BME280;47850;50.274;18.908;2022-11-20T11:24:58;97567.29;;;2.61;71.00
61898;BME280;47850;50.274;18.908;2022-11-20T11:27:23;97565.80;;;2.90;70.75
61898;BME280;47850;50.274;18.908;2022-11-20T11:29:49;97567.77;;;3.10;69.89
61898;BME280;47850;50.274;18.908;2022-11-20T11:32:17;97566.61;;;3.06;69.04
61898;BME280;47850;50.274;18.908;2022-11-20T11:34:42;97566.46;;;2.93;69.08
61898;BME280;47850;50.274;18.908;2022-11-20T11:37:18;97567.90;;;2.89;69.08
61898;BME280;47850;50.274;18.908;2022-11-20T11:39:46;97563.77;;;2.90;69.12
61898;BME280;47850;50.274;18.908;2022-11-20T11:42:13;97560.38;;;2.71;69.11
61898;BME280;47850;50.274;18.908;2022-11-20T11:44:43;97557.54;;;2.48;69.63
61898;BME280;47850;50.274;18.908;2022-11-20T11:52:56;97538.55;;;2.12;71.34
61898;BME280;47850;50.274;18.908;2022-11-20T11:56:07;97536.09;;;2.52;70.96
61898;BME280;47850;50.274;18.908;2022-11-20T12:00:36;97533.18;;;2.25;71.17
61898;BME280;47850;50.274;18.908;2022-11-20T12:03:21;97536.77;;;2.05;71.23
61898;BME280;47850;50.274;18.908;2022-11-20T12:05:49;97539.96;;;1.83;71.79
61898;BME280;47850;50.274;18.908;2022-11-20T12:08:23;97539.98;;;1.69;72.11
61898;BME280;47850;50.274;18.908;2022-11-20T12:11:10;97538.97;;;1.55;72.06
61898;BME280;47850;50.274;18.908;2022-11-20T12:13:54;97537.15;;;1.39;72.42
61898;BME280;47850;50.274;18.908;2022-11-20T12:16:21;97535.59;;;1.26;72.95
61898;BME280;47850;50.274;18.908;2022-11-20T12:18:48;97533.84;;;1.20;72.93
61898;BME280;47850;50.274;18.908;2022-11-20T12:29:37;97515.08;;;1.50;72.91
61898;BME280;47850;50.274;18.908;2022-11-20T12:34:40;97502.08;;;1.50;71.95
61898;BME280;47850;50.274;18.908;2022-11-20T12:37:44;97496.41;;;1.55;72.22
61898;BME280;47850;50.274;18.908;2022-11-20T12:40:08;97484.75;;;1.87;71.81
61898;BME280;47850;50.274;18.908;2022-11-20T12:42:52;97479.58;;;2.87;69.55
61898;BME280;47850;50.274;18.908;2022-11-20T12:45:56;97473.17;;;3.97;66.53
61898;BME280;47850;50.274;18.908;2022-11-20T12:51:09;97461.73;;;5.57;61.95
61898;BME280;47850;50.274;18.908;2022-11-20T12:56:39;97458.41;;;6.87;57.82
61898;BME280;47850;50.274;18.908;2022-11-20T13:06:57;97462.26;;;7.59;54.87
61898;BME280;47850;50.274;18.908;2022-11-20T13:09:23;97465.89;;;7.17;53.83
61898;BME280;47850;50.274;18.908;2022-11-20T13:12:10;97461.36;;;7.00;53.18
61898;BME280;47850;50.274;18.908;2022-11-20T13:17:24;97456.81;;;7.02;54.51
61898;BME280;47850;50.274;18.908;2022-11-20T13:19:54;97455.59;;;7.27;53.72
61898;BME280;47850;50.274;18.908;2022-11-20T13:24:51;97443.66;;;7.73;52.76
61898;BME280;47850;50.274;18.908;2022-11-20T13:27:18;97445.07;;;7.82;52.48
61898;BME280;47850;50.274;18.908;2022-11-20T13:29:47;97447.03;;;6.85;53.72
61898;BME280;47850;50.274;18.908;2022-11-20T13:32:24;97440.59;;;5.88;56.00
61898;BME280;47850;50.274;18.908;2022-11-20T13:40:19;97447.79;;;3.58;61.84
61898;BME280;47850;50.274;18.908;2022-11-20T13:42:45;97448.42;;;3.09;63.32
61898;BME280;47850;50.274;18.908;2022-11-20T13:45:35;97445.73;;;2.66;64.76
61898;BME280;47850;50.274;18.908;2022-11-20T13:48:04;97439.98;;;2.23;66.27
61898;BME280;47850;50.274;18.908;2022-11-20T13:53:05;97434.14;;;1.67;68.35
61898;BME280;47850;50.274;18.908;2022-11-20T14:00:47;97422.26;;;0.87;71.54
61898;BME280;47850;50.274;18.908;2022-11-20T14:03:24;97423.35;;;0.65;72.33
61898;BME280;47850;50.274;18.908;2022-11-20T14:06:02;97418.61;;;0.46;73.51
61898;BME280;47850;50.274;18.908;2022-11-20T14:08:47;97424.92;;;0.27;74.29
61898;BME280;47850;50.274;18.908;2022-11-20T14:11:21;97427.30;;;0.11;75.09
61898;BME280;47850;50.274;18.908;2022-11-20T14:14:30;97427.42;;;-0.02;75.69
61898;BME280;47850;50.274;18.908;2022-11-20T14:16:36;97429.78;;;-0.14;76.16
61898;BME280;47850;50.274;18.908;2022-11-20T14:21:51;97426.29;;;-0.35;77.61
61898;BME280;47850;50.274;18.908;2022-11-20T14:24:20;97426.60;;;-0.43;78.21
61898;BME280;47850;50.274;18.908;2022-11-20T14:26:46;97428.02;;;-0.51;78.32
61898;BME280;47850;50.274;18.908;2022-11-20T14:29:13;97428.19;;;-0.56;78.83
61898;BME280;47850;50.274;18.908;2022-11-20T14:31:38;97413.48;;;-0.61;79.19
61898;BME280;47850;50.274;18.908;2022-11-20T14:34:04;97410.91;;;-0.65;79.74